Saint Louis, MO (63132)

6:34 AM CDT on March 23, 2017 (GMT -0500)
MD1379 | | Change Station

Elev 692 ft 38.68 °N, 90.39 °W | Updated 4 days ago

Overcast
Overcast
48.0 °F
Feels Like 48.0 °F
N
0.0
Wind Variable Wind from SW
Gusts 1.0 mph

Today
High -- | Low -- °F
--% Chance of Precip.
Yesterday
High -- | Low -- °F
Precip. -- in
Pressure 30.30 in
Visibility 10.0 miles
Clouds Scattered Clouds 4100 ft
Overcast 6000 ft
Dew Point 37.0 °F
Humidity 66%
Rainfall 0.04 in
Snow Depth Not available.
6:59 AM 7:16 PM
Waning Crescent, 24% visible
METAR KSTL 231051Z 12011KT 10SM -RA SCT041 OVC060 04/M01 A3028 RMK AO2 RAE27B48 TSB21E40 SLP258 P0003 T00441011
Pressure 30.30 in
Visibility 10.0 miles
Clouds Scattered Clouds 4100 ft
Overcast 6000 ft
Dew Point 37.0 °F
Humidity 66%
Rainfall 0.04 in
Snow Depth Not available.
6:59 AM 7:16 PM
Waning Crescent, 24% visible
METAR KSTL 231051Z 12011KT 10SM -RA SCT041 OVC060 04/M01 A3028 RMK AO2 RAE27B48 TSB21E40 SLP258 P0003 T00441011

Get Severe Weather Alerts

Thanks for signing up!

Be on the lookout for a verification email in your inbox.

You'll start receiving the daily forecast at 8 AM.

×

10-Day Weather Forecast

Almanac

Astronomy

Mar. 23, 2017 Rise Set
Actual Time
Civil Twilight
Nautical Twilight
Astronomical Twilight
Moon
Length of Visible Light
Length of Day
Tomorrow will be .
, % of the Moon is Illuminated

Today's Extremes

State Highs State Lows

Community

WunderPhotos

Upload Photos

1,962,540 photos uploaded!

WunderBlog® & News

Nearby

Air Quality

  Air Quality AQ Index Pollutant
Not available.

Snow Depth

Station Depth Elevation

Earthquake Activity

City Distance Mag. Time & Date
Minimum magnitude displayed is 2.5.

Earthquake Activity

City Distance Mag. Time & Date
Minimum magnitude displayed is 2.5.

Coastal Water Temperatures

Place Temperature

Stations

Nearby Weather Stations

Station Location Temp. Windchill Dew Point Humidity Wind Precip. Elev Updated Type
                   

Watches & Warnings

There are currently no watches in effect.